createdAt,value
2023-08-15T00:01:05.927Z,70.49
2023-08-15T00:03:27.794Z,70.66
2023-08-15T00:05:49.526Z,70.50
2023-08-15T00:08:11.161Z,70.84
2023-08-15T00:10:32.872Z,71.21
2023-08-15T00:12:54.550Z,70.72
2023-08-15T00:15:16.313Z,70.71
2023-08-15T00:17:38.006Z,70.99
2023-08-15T00:19:59.736Z,70.86
2023-08-15T00:22:21.406Z,70.77
2023-08-15T00:24:43.086Z,71.18
2023-08-15T00:27:04.792Z,71.01
2023-08-15T00:29:26.442Z,71.33
2023-08-15T00:31:48.166Z,71.29
2023-08-15T00:34:09.905Z,71.56
2023-08-15T00:36:31.649Z,71.47
2023-08-15T00:38:53.982Z,71.52
2023-08-15T00:41:15.643Z,71.52
2023-08-15T00:43:37.451Z,71.35
2023-08-15T00:46:03.419Z,71.98
2023-08-15T00:48:30.923Z,71.89
2023-08-15T00:50:52.657Z,71.72
2023-08-15T00:53:14.512Z,71.89
2023-08-15T00:55:36.559Z,72.17
2023-08-15T00:57:58.836Z,72.11
2023-08-15T01:00:20.785Z,72.05
2023-08-15T01:02:43.510Z,72.32
2023-08-15T01:05:06.261Z,72.74
2023-08-15T01:07:28.150Z,72.95
2023-08-15T01:09:49.812Z,72.82
2023-08-15T01:12:32.577Z,72.85
2023-08-15T01:15:04.655Z,72.92
2023-08-15T01:17:45.479Z,72.85
2023-08-15T01:20:21.503Z,72.93
2023-08-15T01:22:49.185Z,72.92
2023-08-15T01:25:11.175Z,73.02
2023-08-15T01:27:32.819Z,73.03
2023-08-15T01:29:54.920Z,72.86
2023-08-15T01:32:43.777Z,72.87
2023-08-15T01:35:37.666Z,73.01
2023-08-15T01:38:11.413Z,73.00
2023-08-15T01:40:36.753Z,73.02
2023-08-15T01:43:01.640Z,73.37
2023-08-15T01:45:25.724Z,73.43
2023-08-15T01:47:52.690Z,73.88
2023-08-15T01:50:14.356Z,74.99
2023-08-15T01:52:36.552Z,74.83
2023-08-15T01:54:58.244Z,75.25
2023-08-15T01:57:20.250Z,75.17
2023-08-15T01:59:44.878Z,75.03
2023-08-15T02:02:07.942Z,74.62
2023-08-15T02:04:29.612Z,74.52
2023-08-15T02:06:52.493Z,74.62
2023-08-15T02:09:14.190Z,74.16
2023-08-15T02:11:36.036Z,74.10
2023-08-15T02:13:59.554Z,73.84
2023-08-15T02:16:21.286Z,73.48
2023-08-15T02:18:42.982Z,73.36
2023-08-15T02:21:05.391Z,73.28
2023-08-15T02:23:27.036Z,73.14
2023-08-15T02:25:48.952Z,72.96
2023-08-15T02:28:10.630Z,72.42
2023-08-15T02:30:38.167Z,72.01
2023-08-15T02:32:59.826Z,71.65
2023-08-15T02:35:21.595Z,71.31
2023-08-15T02:37:43.340Z,71.01
2023-08-15T02:40:07.456Z,70.76
2023-08-15T02:42:29.126Z,70.23
2023-08-15T02:44:51.096Z,69.96
2023-08-15T02:47:13.456Z,69.73
2023-08-15T02:49:35.140Z,68.99
2023-08-15T02:51:56.818Z,68.74
2023-08-15T02:54:18.546Z,68.65
2023-08-15T02:56:40.179Z,68.30
2023-08-15T02:59:01.983Z,68.37
2023-08-15T03:01:24.724Z,68.06
2023-08-15T03:03:46.423Z,68.20
2023-08-15T03:06:08.068Z,68.36
2023-08-15T03:08:31.176Z,68.24
2023-08-15T03:10:53.515Z,68.38
2023-08-15T03:13:15.195Z,68.66
2023-08-15T03:15:37.749Z,68.63
2023-08-15T03:17:59.706Z,68.53
2023-08-15T03:20:22.248Z,68.71
2023-08-15T03:22:44.693Z,69.17
2023-08-15T03:25:07.259Z,68.97
2023-08-15T03:27:28.925Z,69.12
2023-08-15T03:29:50.886Z,69.14
2023-08-15T03:32:12.617Z,69.48
2023-08-15T03:34:34.465Z,69.30
2023-08-15T03:36:57.657Z,69.68
2023-08-15T03:39:19.308Z,69.80
2023-08-15T03:41:40.992Z,69.77
2023-08-15T03:44:02.755Z,70.45
2023-08-15T03:46:25.093Z,70.28
2023-08-15T03:48:49.097Z,70.40
2023-08-15T03:51:12.918Z,70.50
2023-08-15T03:53:38.194Z,70.46
2023-08-15T03:56:00.220Z,70.75
2023-08-15T03:58:22.993Z,70.81
2023-08-15T04:00:45.738Z,70.94
2023-08-15T04:03:07.497Z,70.55
2023-08-15T04:05:29.140Z,70.85
2023-08-15T04:07:51.204Z,71.15
2023-08-15T04:10:14.605Z,71.33
2023-08-15T04:12:36.494Z,71.74
2023-08-15T04:14:58.250Z,71.46
2023-08-15T04:17:20.072Z,71.63
2023-08-15T04:19:41.908Z,72.14
2023-08-15T04:22:03.613Z,72.38
2023-08-15T04:24:25.339Z,72.20
2023-08-15T04:26:47.019Z,72.10
2023-08-15T04:29:08.977Z,72.38
2023-08-15T04:31:30.660Z,72.62
2023-08-15T04:33:52.309Z,72.65
2023-08-15T04:36:14.059Z,72.64
2023-08-15T04:38:35.725Z,73.07
2023-08-15T04:40:59.226Z,72.84
2023-08-15T04:43:21.914Z,73.13
2023-08-15T04:45:45.301Z,73.49
2023-08-15T04:48:12.497Z,73.64
2023-08-15T04:50:34.185Z,73.49
2023-08-15T04:52:55.928Z,73.78
2023-08-15T04:55:18.970Z,73.73
2023-08-15T04:57:41.322Z,74.14
2023-08-15T05:00:04.497Z,74.25
2023-08-15T05:02:26.245Z,74.07
2023-08-15T05:04:47.959Z,74.15
2023-08-15T05:07:09.725Z,74.01
2023-08-15T05:09:31.617Z,74.18
2023-08-15T05:11:53.291Z,74.30
2023-08-15T05:14:16.266Z,74.33
2023-08-15T05:16:37.906Z,74.64
2023-08-15T05:18:59.709Z,74.78
2023-08-15T05:21:21.507Z,74.81
2023-08-15T05:23:43.202Z,74.70
2023-08-15T05:26:04.923Z,74.64
2023-08-15T05:28:26.830Z,74.51
2023-08-15T05:30:48.711Z,74.59
2023-08-15T05:33:10.435Z,74.91
2023-08-15T05:35:32.686Z,74.80
2023-08-15T05:37:55.027Z,75.01
2023-08-15T05:40:17.249Z,75.28
2023-08-15T05:42:38.955Z,75.68
2023-08-15T05:45:00.616Z,75.52
2023-08-15T05:47:22.528Z,75.38
2023-08-15T05:49:44.517Z,75.53
2023-08-15T05:52:06.324Z,75.70
2023-08-15T05:54:28.450Z,75.34
2023-08-15T05:56:50.171Z,75.69
2023-08-15T05:59:11.837Z,75.39
2023-08-15T06:01:34.363Z,75.83
2023-08-15T06:03:56.187Z,75.36
2023-08-15T06:06:18.055Z,75.16
2023-08-15T06:08:39.734Z,75.33
2023-08-15T06:11:01.361Z,74.92
2023-08-15T06:13:23.066Z,74.80
2023-08-15T06:15:45.547Z,74.80
2023-08-15T06:18:07.245Z,74.51
2023-08-15T06:20:29.318Z,74.35
2023-08-15T06:22:51.119Z,74.17
2023-08-15T06:25:12.873Z,74.12
2023-08-15T06:27:34.785Z,73.85
2023-08-15T06:29:56.576Z,73.81
2023-08-15T06:32:30.414Z,73.39
2023-08-15T06:34:52.109Z,73.49
2023-08-15T06:37:14.582Z,73.32
2023-08-15T06:39:36.332Z,73.30
2023-08-15T06:41:57.978Z,72.85
2023-08-15T06:44:19.657Z,72.91
2023-08-15T06:46:41.386Z,72.49
2023-08-15T06:49:03.233Z,72.42
2023-08-15T06:51:24.942Z,72.19
2023-08-15T06:53:46.729Z,72.13
2023-08-15T06:56:10.881Z,71.49
2023-08-15T06:58:32.527Z,71.14
2023-08-15T07:00:55.402Z,71.19
2023-08-15T07:03:17.910Z,70.74
2023-08-15T07:05:39.603Z,70.51
2023-08-15T07:08:04.382Z,70.18
2023-08-15T07:10:26.550Z,69.93
2023-08-15T07:12:48.166Z,69.55
2023-08-15T07:15:10.196Z,69.19
2023-08-15T07:17:32.159Z,69.02
2023-08-15T07:19:54.443Z,68.56
2023-08-15T07:22:16.342Z,68.14
2023-08-15T07:24:37.989Z,68.16
2023-08-15T07:26:59.664Z,68.31
2023-08-15T07:29:21.398Z,67.97
2023-08-15T07:31:43.116Z,67.55
2023-08-15T07:34:04.811Z,66.90
2023-08-15T07:36:26.580Z,66.07
2023-08-15T07:38:48.223Z,65.80
2023-08-15T07:41:09.881Z,65.45
2023-08-15T07:43:31.585Z,64.94
2023-08-15T07:45:53.328Z,64.45
2023-08-15T07:48:14.998Z,63.98
2023-08-15T07:50:37.180Z,64.24
2023-08-15T07:52:59.669Z,63.87
2023-08-15T07:55:22.869Z,63.07
2023-08-15T07:57:45.139Z,62.07
2023-08-15T08:00:09.268Z,62.57
2023-08-15T08:02:45.294Z,62.71
2023-08-15T08:05:09.010Z,63.11
2023-08-15T08:07:32.240Z,62.89
2023-08-15T08:09:53.878Z,63.28
2023-08-15T08:12:16.363Z,63.36
2023-08-15T08:14:44.979Z,63.50
2023-08-15T08:17:14.073Z,63.65
2023-08-15T08:19:35.837Z,63.31
2023-08-15T08:21:57.485Z,62.64
2023-08-15T08:24:19.295Z,62.62
2023-08-15T08:26:42.055Z,62.88
2023-08-15T08:29:03.861Z,62.94
2023-08-15T08:31:25.542Z,62.59
2023-08-15T08:33:48.102Z,62.97
2023-08-15T08:36:09.736Z,62.56
2023-08-15T08:38:31.443Z,62.45
2023-08-15T08:40:56.744Z,62.73
2023-08-15T08:43:19.799Z,62.66
2023-08-15T08:45:47.848Z,63.01
2023-08-15T08:48:10.777Z,62.94
2023-08-15T08:50:33.552Z,63.10
2023-08-15T08:52:55.260Z,63.15
2023-08-15T08:55:18.502Z,63.23
2023-08-15T08:57:42.563Z,63.16
2023-08-15T09:00:08.948Z,63.17
2023-08-15T09:02:31.158Z,63.19
2023-08-15T09:04:56.074Z,62.71
2023-08-15T09:07:17.862Z,62.92
2023-08-15T09:09:39.567Z,62.88
2023-08-15T09:12:01.239Z,63.03
2023-08-15T09:14:23.614Z,62.83
2023-08-15T09:16:50.735Z,62.40
2023-08-15T09:19:12.434Z,62.44
2023-08-15T09:21:34.952Z,61.70
2023-08-15T09:23:58.428Z,61.75
2023-08-15T09:26:20.084Z,61.52
2023-08-15T09:28:44.855Z,61.62
2023-08-15T09:31:06.652Z,61.11
2023-08-15T09:33:30.740Z,61.04
2023-08-15T09:35:58.658Z,61.17
2023-08-15T09:38:20.866Z,61.03
2023-08-15T09:40:46.533Z,60.33
2023-08-15T09:43:09.416Z,60.32
2023-08-15T09:45:31.387Z,59.89
2023-08-15T09:47:53.549Z,59.71
2023-08-15T09:50:17.227Z,60.16
2023-08-15T09:52:42.189Z,59.68
2023-08-15T09:55:04.337Z,59.37
2023-08-15T09:57:26.160Z,59.06
2023-08-15T09:59:48.140Z,59.45
2023-08-15T10:02:24.057Z,59.06
2023-08-15T10:04:50.716Z,58.55
2023-08-15T10:07:12.628Z,58.57
2023-08-15T10:09:34.421Z,58.90
2023-08-15T10:11:59.321Z,58.70
2023-08-15T10:14:23.262Z,58.56
2023-08-15T10:16:45.687Z,57.89
2023-08-15T10:19:15.369Z,58.05
2023-08-15T10:21:54.358Z,57.73
2023-08-15T10:24:16.131Z,57.88
2023-08-15T10:26:39.694Z,57.29
2023-08-15T10:29:03.339Z,57.14
2023-08-15T10:31:45.424Z,56.73
2023-08-15T10:34:11.973Z,56.41
2023-08-15T10:36:34.753Z,56.86
2023-08-15T10:38:56.518Z,55.96
2023-08-15T10:41:19.201Z,55.41
2023-08-15T10:43:48.257Z,55.40
2023-08-15T10:46:10.693Z,55.20
2023-08-15T10:49:03.447Z,54.74
2023-08-15T10:51:36.516Z,54.96
2023-08-15T10:54:02.164Z,54.56
2023-08-15T10:56:27.264Z,54.45
2023-08-15T10:58:51.331Z,54.16
2023-08-15T11:01:22.656Z,54.03
2023-08-15T11:03:47.912Z,53.99
2023-08-15T11:06:12.693Z,53.63
2023-08-15T11:08:34.525Z,54.34
2023-08-15T11:10:56.262Z,54.52
2023-08-15T11:13:18.696Z,54.69
2023-08-15T11:15:40.724Z,54.51
2023-08-15T11:18:02.654Z,55.09
2023-08-15T11:20:30.212Z,54.40
2023-08-15T11:23:01.213Z,54.21
2023-08-15T11:25:23.041Z,54.63
2023-08-15T11:27:46.443Z,54.24
2023-08-15T11:30:10.011Z,53.89
2023-08-15T11:32:31.893Z,53.56
2023-08-15T11:34:54.665Z,53.42
2023-08-15T11:37:18.112Z,53.57
2023-08-15T11:39:40.336Z,53.19
2023-08-15T11:42:02.340Z,52.92
2023-08-15T11:44:24.089Z,52.69
2023-08-15T11:46:53.734Z,53.01
2023-08-15T11:49:24.869Z,52.89
2023-08-15T11:51:47.893Z,52.58
2023-08-15T11:54:09.724Z,51.35
2023-08-15T11:56:51.908Z,49.98
2023-08-15T11:59:19.814Z,50.92
2023-08-15T12:01:44.874Z,50.56
2023-08-15T12:04:08.916Z,49.91
2023-08-15T12:06:31.790Z,49.67
2023-08-15T12:08:53.687Z,49.64
2023-08-15T12:11:21.747Z,48.87
2023-08-15T12:13:43.544Z,49.24
2023-08-15T12:16:08.134Z,48.50
2023-08-15T12:18:31.489Z,47.86
2023-08-15T12:20:54.326Z,47.53
2023-08-15T12:23:23.128Z,47.61
2023-08-15T12:25:49.099Z,47.87
2023-08-15T12:28:11.686Z,48.17
2023-08-15T12:30:33.972Z,48.40
2023-08-15T12:32:55.785Z,48.66
2023-08-15T12:35:17.624Z,49.40
2023-08-15T12:37:39.268Z,49.46
2023-08-15T12:40:01.169Z,50.29
2023-08-15T12:42:23.454Z,50.54
2023-08-15T12:44:45.413Z,50.61
2023-08-15T12:47:07.201Z,50.79
2023-08-15T12:49:29.102Z,50.90
2023-08-15T12:51:50.848Z,50.52
2023-08-15T12:54:12.978Z,51.06
2023-08-15T12:56:36.321Z,50.68
2023-08-15T12:58:58.234Z,50.63
2023-08-15T13:01:20.220Z,50.65
2023-08-15T13:03:42.986Z,51.07
2023-08-15T13:06:04.829Z,50.97
2023-08-15T13:08:26.800Z,50.46
2023-08-15T13:10:48.893Z,49.22
2023-08-15T13:13:10.601Z,49.79
2023-08-15T13:15:32.343Z,50.23
2023-08-15T13:17:55.710Z,49.32
2023-08-15T13:20:17.666Z,48.98
2023-08-15T13:22:39.492Z,48.06
2023-08-15T13:25:01.280Z,46.69
2023-08-15T13:27:23.070Z,46.44
2023-08-15T13:29:46.333Z,46.59
2023-08-15T13:32:08.150Z,46.15
2023-08-15T13:34:29.961Z,46.97
2023-08-15T13:36:51.637Z,47.07
2023-08-15T13:39:13.376Z,47.59
2023-08-15T13:41:35.925Z,47.59
2023-08-15T13:43:58.932Z,47.24
2023-08-15T13:46:20.867Z,47.38
2023-08-15T13:48:42.499Z,47.00
2023-08-15T13:51:05.286Z,46.57
2023-08-15T13:53:27.058Z,46.77
2023-08-15T13:55:48.692Z,47.11
2023-08-15T13:58:10.307Z,47.45
2023-08-15T14:00:33.756Z,47.32
2023-08-15T14:02:55.660Z,46.50
2023-08-15T14:05:17.432Z,45.95
2023-08-15T14:07:39.100Z,46.08
2023-08-15T14:10:01.086Z,46.77
2023-08-15T14:12:23.710Z,47.11
2023-08-15T14:14:45.907Z,47.11
2023-08-15T14:17:07.666Z,47.06
2023-08-15T14:19:29.386Z,47.35
2023-08-15T14:21:51.078Z,47.21
2023-08-15T14:24:12.834Z,47.29
2023-08-15T14:26:34.450Z,47.50
2023-08-15T14:28:56.211Z,47.58
2023-08-15T14:31:18.094Z,47.55
2023-08-15T14:33:39.779Z,46.30
2023-08-15T14:36:01.498Z,45.71
2023-08-15T14:38:23.378Z,45.19
2023-08-15T14:40:45.010Z,45.14
2023-08-15T14:43:06.663Z,45.40
2023-08-15T14:45:28.572Z,45.18
2023-08-15T14:47:50.401Z,44.22
2023-08-15T14:50:12.335Z,44.72
2023-08-15T14:52:35.017Z,44.24
2023-08-15T14:54:57.618Z,44.65
2023-08-15T14:57:19.495Z,44.83
2023-08-15T14:59:41.354Z,44.47
2023-08-15T15:02:04.226Z,45.10
2023-08-15T15:04:26.649Z,46.01
2023-08-15T15:06:48.423Z,47.44
2023-08-15T15:09:10.478Z,47.99
2023-08-15T15:11:32.362Z,47.90
2023-08-15T15:13:54.085Z,48.81
2023-08-15T15:16:15.901Z,49.61
2023-08-15T15:18:37.586Z,50.29
2023-08-15T15:20:59.662Z,49.98
2023-08-15T15:23:23.627Z,50.50
2023-08-15T15:25:46.483Z,51.05
2023-08-15T15:28:08.379Z,51.53
2023-08-15T15:30:30.217Z,51.75
2023-08-15T15:32:52.334Z,51.24
2023-08-15T15:35:14.294Z,51.50
2023-08-15T15:37:35.992Z,51.91
2023-08-15T15:40:01.161Z,52.52
2023-08-15T15:42:23.133Z,53.04
2023-08-15T15:44:45.026Z,53.34
2023-08-15T15:47:07.085Z,53.23
2023-08-15T15:49:28.905Z,53.75
2023-08-15T15:51:50.818Z,53.11
2023-08-15T15:54:12.971Z,53.09
2023-08-15T15:56:34.931Z,53.21
2023-08-15T15:58:57.057Z,53.25
2023-08-15T16:01:18.854Z,53.37
2023-08-15T16:03:40.771Z,53.53
2023-08-15T16:06:02.623Z,53.45
2023-08-15T16:08:24.448Z,53.42
2023-08-15T16:10:46.134Z,53.69
2023-08-15T16:13:07.854Z,53.61
2023-08-15T16:15:29.806Z,53.90
2023-08-15T16:17:51.653Z,53.42
2023-08-15T16:20:13.879Z,53.92
2023-08-15T16:22:35.694Z,53.19
2023-08-15T16:24:57.593Z,52.29
2023-08-15T16:27:20.794Z,52.51
2023-08-15T16:29:42.617Z,52.24
2023-08-15T16:32:04.628Z,53.07
2023-08-15T16:34:26.348Z,53.14
2023-08-15T16:36:48.527Z,53.57
2023-08-15T16:39:10.234Z,53.60
2023-08-15T16:41:31.982Z,53.48
2023-08-15T16:43:54.113Z,53.93
2023-08-15T16:46:16.583Z,53.90
2023-08-15T16:48:38.620Z,54.20
2023-08-15T16:51:01.114Z,54.62
2023-08-15T16:53:22.896Z,54.70
2023-08-15T16:55:47.160Z,54.67
2023-08-15T16:58:09.178Z,54.70
2023-08-15T17:00:31.550Z,54.96
2023-08-15T17:02:54.039Z,55.13
2023-08-15T17:05:16.638Z,54.49
2023-08-15T17:07:38.483Z,54.98
2023-08-15T17:10:00.644Z,54.97
2023-08-15T17:12:22.514Z,54.55
2023-08-15T17:14:44.614Z,54.15
2023-08-15T17:17:06.278Z,53.98
2023-08-15T17:19:27.925Z,53.59
2023-08-15T17:21:49.660Z,53.16
2023-08-15T17:24:11.360Z,53.28
2023-08-15T17:26:33.040Z,53.51
2023-08-15T17:28:54.890Z,53.37
2023-08-15T17:31:17.013Z,52.96
2023-08-15T17:33:38.700Z,53.21
2023-08-15T17:36:00.459Z,53.31
2023-08-15T17:38:22.097Z,53.44
2023-08-15T17:40:43.902Z,53.76
2023-08-15T17:43:05.687Z,53.75
2023-08-15T17:45:29.005Z,53.88
2023-08-15T17:47:50.817Z,54.11
2023-08-15T17:50:12.516Z,54.06
2023-08-15T17:52:35.765Z,54.42
2023-08-15T17:54:57.534Z,54.50
2023-08-15T17:57:19.164Z,54.54
2023-08-15T17:59:40.967Z,54.59
2023-08-15T18:02:02.786Z,54.89
2023-08-15T18:04:24.518Z,54.78
2023-08-15T18:06:46.214Z,54.82
2023-08-15T18:09:10.077Z,54.98
2023-08-15T18:11:32.220Z,54.61
2023-08-15T18:13:53.980Z,54.42
2023-08-15T18:16:15.693Z,54.58
2023-08-15T18:18:37.336Z,54.54
2023-08-15T18:20:59.004Z,54.12
2023-08-15T18:23:20.709Z,54.11
2023-08-15T18:25:42.365Z,53.92
2023-08-15T18:28:04.506Z,53.92
2023-08-15T18:30:28.518Z,53.73
2023-08-15T18:32:50.273Z,54.14
2023-08-15T18:35:11.993Z,54.21
2023-08-15T18:37:33.823Z,54.62
2023-08-15T18:39:55.469Z,54.89
2023-08-15T18:42:17.139Z,54.66
2023-08-15T18:44:39.960Z,54.78
2023-08-15T18:47:03.491Z,55.14
2023-08-15T18:49:25.379Z,55.10
2023-08-15T18:51:47.106Z,55.59
2023-08-15T18:54:09.004Z,55.87
2023-08-15T18:56:30.827Z,56.25
2023-08-15T18:58:52.604Z,56.65
2023-08-15T19:01:14.717Z,56.79
2023-08-15T19:03:36.540Z,57.13
2023-08-15T19:05:58.578Z,57.45
2023-08-15T19:08:20.211Z,57.69
2023-08-15T19:10:42.066Z,58.11
2023-08-15T19:13:03.895Z,58.34
2023-08-15T19:15:25.684Z,58.89
2023-08-15T19:17:51.655Z,58.81
2023-08-15T19:20:13.556Z,59.01
2023-08-15T19:22:35.447Z,59.53
2023-08-15T19:24:57.187Z,59.21
2023-08-15T19:27:18.864Z,59.80
2023-08-15T19:29:40.765Z,59.79
2023-08-15T19:32:02.659Z,60.23
2023-08-15T19:34:24.414Z,60.65
2023-08-15T19:36:46.171Z,60.55
2023-08-15T19:39:10.347Z,60.82
2023-08-15T19:41:31.993Z,60.81
2023-08-15T19:43:57.268Z,60.87
2023-08-15T19:46:19.047Z,60.86
2023-08-15T19:48:40.878Z,61.28
2023-08-15T19:51:02.648Z,61.80
2023-08-15T19:53:25.176Z,61.83
2023-08-15T19:55:46.805Z,61.20
2023-08-15T19:58:10.398Z,61.56
2023-08-15T20:00:32.199Z,61.30
2023-08-15T20:02:54.030Z,61.19
2023-08-15T20:05:15.908Z,61.50
2023-08-15T20:07:38.701Z,61.37
2023-08-15T20:10:10.652Z,61.14
2023-08-15T20:12:33.818Z,61.29
2023-08-15T20:14:55.475Z,61.24
2023-08-15T20:17:17.291Z,61.53
2023-08-15T20:19:39.023Z,61.83
2023-08-15T20:22:00.858Z,61.77
2023-08-15T20:24:22.537Z,61.88
2023-08-15T20:26:44.421Z,61.59
2023-08-15T20:29:06.186Z,61.84
2023-08-15T20:31:28.068Z,61.52
2023-08-15T20:33:50.038Z,61.81
2023-08-15T20:36:14.585Z,61.92
2023-08-15T20:38:37.392Z,62.09
2023-08-15T20:40:59.086Z,61.91
2023-08-15T20:43:20.798Z,62.19
2023-08-15T20:45:42.842Z,62.11
2023-08-15T20:48:04.877Z,62.45
2023-08-15T20:50:27.664Z,62.28
2023-08-15T20:52:51.169Z,62.24
2023-08-15T20:55:15.001Z,62.33
2023-08-15T20:57:36.617Z,62.36
2023-08-15T21:00:00.144Z,62.66
2023-08-15T21:02:22.229Z,62.54
2023-08-15T21:04:44.215Z,62.53
2023-08-15T21:07:05.966Z,62.48
2023-08-15T21:09:27.747Z,62.58
2023-08-15T21:11:49.448Z,62.59
2023-08-15T21:14:11.186Z,62.33
2023-08-15T21:16:32.908Z,62.58
2023-08-15T21:18:54.707Z,62.72
2023-08-15T21:21:16.371Z,62.58
2023-08-15T21:23:38.308Z,63.16
2023-08-15T21:25:59.963Z,62.98
2023-08-15T21:28:21.599Z,62.96
2023-08-15T21:30:43.950Z,63.30
2023-08-15T21:33:05.769Z,63.46
2023-08-15T21:35:27.729Z,63.50
2023-08-15T21:37:49.357Z,63.41
2023-08-15T21:40:11.852Z,63.69
2023-08-15T21:42:33.615Z,63.56
2023-08-15T21:44:55.267Z,63.69
2023-08-15T21:47:17.021Z,63.87
2023-08-15T21:49:38.787Z,63.79
2023-08-15T21:52:00.536Z,63.65
2023-08-15T21:54:23.503Z,63.50
2023-08-15T21:56:45.197Z,63.42
2023-08-15T21:59:06.882Z,63.68
2023-08-15T22:01:28.635Z,63.76
2023-08-15T22:03:50.373Z,64.51
2023-08-15T22:06:12.177Z,64.10
2023-08-15T22:08:33.952Z,64.26
2023-08-15T22:10:55.604Z,64.30
2023-08-15T22:13:17.332Z,64.10
2023-08-15T22:15:39.070Z,64.22
2023-08-15T22:18:13.381Z,64.64
2023-08-15T22:20:41.768Z,64.88
2023-08-15T22:23:03.449Z,64.84
2023-08-15T22:25:25.679Z,64.63
2023-08-15T22:27:49.818Z,64.41
2023-08-15T22:30:12.269Z,64.88
2023-08-15T22:32:33.995Z,64.92
2023-08-15T22:34:55.754Z,65.07
2023-08-15T22:37:17.445Z,65.12
2023-08-15T22:39:39.082Z,65.26
2023-08-15T22:42:00.826Z,65.25
2023-08-15T22:44:22.518Z,65.42
2023-08-15T22:46:44.442Z,65.51
2023-08-15T22:49:06.289Z,64.90
2023-08-15T22:51:27.924Z,65.28
2023-08-15T22:53:49.603Z,64.86
2023-08-15T22:56:12.408Z,65.25
2023-08-15T22:58:34.133Z,65.12
2023-08-15T23:00:57.615Z,65.23
2023-08-15T23:03:19.312Z,65.15
2023-08-15T23:05:41.073Z,65.23
2023-08-15T23:08:02.695Z,65.06
2023-08-15T23:10:24.380Z,65.37
2023-08-15T23:12:46.053Z,65.21
2023-08-15T23:15:08.523Z,65.15
2023-08-15T23:17:30.273Z,65.43
2023-08-15T23:19:51.950Z,65.39
2023-08-15T23:22:13.615Z,65.61
2023-08-15T23:24:36.068Z,66.01
2023-08-15T23:26:57.881Z,65.83
2023-08-15T23:29:19.599Z,65.88
2023-08-15T23:31:41.242Z,65.54
2023-08-15T23:34:07.610Z,65.56
2023-08-15T23:36:30.186Z,65.57
2023-08-15T23:38:52.229Z,66.02
2023-08-15T23:41:13.862Z,65.68
2023-08-15T23:43:36.732Z,65.55
2023-08-15T23:45:58.375Z,65.60
2023-08-15T23:48:20.052Z,65.41
2023-08-15T23:50:41.842Z,65.44
2023-08-15T23:53:04.557Z,65.35
2023-08-15T23:55:26.270Z,65.23
2023-08-15T23:57:47.980Z,65.14
